Scali Sanlorenzo — 9HA2400 — position and weather

sailwx.info

Track history (hours):
 
Tides and Currents Weather Stations Pressure Air Temp Water Temp Dewpoint Dewpoint Depression Visibility Wind Speed Wind Dir Waves Ship Positions

Scali Sanlorenzo

Last reported at 2018-Jun-24 18:23 UTC. Time now 2018-Jun-25 06:07 UTC.
Position N 37°28' W 009°12'.

Length 89 m; draft 5.8 m.

Type: Tanker. MMSI: 248532000.

Date/timePositionNaut miles runAvg speedWind from/ knotsBaromVisibWave heightAir tempDewpointWater temp
2018-Jun-24 18:23N 37°28' W 009°12'512.9
2018-Jun-24 18:00N 37°32' W 009°09'713.2
2018-Jun-24 17:30N 37°38' W 009°04'713.4
2018-Jun-24 17:00N 37°43' W 008°59'713.2
2018-Jun-24 16:30N 37°49' W 008°55'713.4
2018-Jun-24 16:00N 37°56' W 008°53'2 2.9
2018-Jun-24 15:28N 37°57' W 008°53'0 0.0
2018-Jun-24 14:58N 37°57' W 008°53'0 0.0
2018-Jun-24 14:28N 37°57' W 008°53'0 0.0
2018-Jun-24 13:58N 37°57' W 008°53'0 0.0
2018-Jun-24 13:28N 37°57' W 008°53'0 0.0
2018-Jun-24 12:58N 37°57' W 008°53'0 0.0
2018-Jun-24 12:28N 37°57' W 008°53'0 0.0
2018-Jun-24 11:58N 37°57' W 008°53'0 0.0
2018-Jun-24 11:28N 37°57' W 008°53'0 0.0
2018-Jun-24 10:58N 37°57' W 008°53'0 0.0
2018-Jun-24 10:28N 37°57' W 008°53'0 0.0
2018-Jun-24 09:58N 37°57' W 008°53'0 0.0
2018-Jun-24 09:28N 37°57' W 008°53'0 0.0
2018-Jun-24 08:58N 37°57' W 008°53'0 0.0
2018-Jun-24 08:28N 37°57' W 008°53'0 0.0
2018-Jun-24 07:58N 37°57' W 008°53'0 0.0
2018-Jun-24 07:28N 37°57' W 008°53'0 0.0
2018-Jun-24 06:58N 37°57' W 008°53'0 0.0
2018-Jun-24 06:28N 37°57' W 008°53'0 0.0
2018-Jun-24 05:58N 37°57' W 008°53'0 0.0
2018-Jun-24 05:28N 37°57' W 008°53'0 0.0
2018-Jun-24 04:58N 37°57' W 008°53'0 0.0
2018-Jun-24 04:28N 37°57' W 008°53'0 0.0
2018-Jun-24 03:58N 37°57' W 008°53'0 0.0
2018-Jun-24 03:28N 37°57' W 008°53'0 0.0
2018-Jun-24 02:58N 37°57' W 008°53'0 0.0
2018-Jun-24 02:28N 37°57' W 008°53'0 0.0
2018-Jun-24 01:58N 37°57' W 008°53'0 0.0
2018-Jun-24 01:28N 37°57' W 008°53'0 0.0
2018-Jun-24 00:58N 37°57' W 008°53'0 0.0
2018-Jun-24 00:28N 37°57' W 008°53'0 0.0
2018-Jun-23 23:58N 37°57' W 008°53'0 0.0
2018-Jun-23 23:28N 37°57' W 008°53'0 0.0
2018-Jun-23 22:58N 37°57' W 008°53'0 0.0
2018-Jun-23 22:28N 37°57' W 008°53'0 0.0
2018-Jun-23 21:58N 37°57' W 008°53'0 0.0
2018-Jun-23 21:25N 37°57' W 008°53'0 0.0
2018-Jun-23 20:58N 37°57' W 008°53'0 0.0
2018-Jun-23 20:28N 37°57' W 008°53'0 0.0
2018-Jun-23 19:58N 37°57' W 008°53'0 0.0
2018-Jun-23 19:25N 37°57' W 008°53'0 0.0
2018-Jun-23 18:58N 37°57' W 008°53'0 0.0
2018-Jun-23 18:28N 37°57' W 008°53'0 0.0
2018-Jun-23 17:58N 37°57' W 008°53'0 0.0
2018-Jun-23 17:22N 37°57' W 008°53'0 0.0
2018-Jun-23 16:58N 37°57' W 008°53'1 1.2
2018-Jun-23 16:30N 37°57' W 008°53'2 3.5
2018-Jun-23 16:00N 37°55' W 008°52'0 0.0
2018-Jun-23 15:30N 37°55' W 008°52'0 0.0
2018-Jun-23 15:00N 37°55' W 008°52'0 0.0
2018-Jun-23 14:30N 37°55' W 008°52'0 0.0
2018-Jun-23 14:00N 37°55' W 008°52'0 0.0
2018-Jun-23 13:30N 37°55' W 008°52'0 0.0
2018-Jun-23 13:00N 37°55' W 008°52'0 0.0
2018-Jun-23 12:30N 37°55' W 008°52'0 0.1
2018-Jun-23 12:00N 37°55' W 008°52'0 0.0
2018-Jun-23 11:30N 37°55' W 008°52'0 0.0
2018-Jun-23 11:00N 37°55' W 008°52'0 0.0
2018-Jun-23 10:30N 37°55' W 008°52'0 0.1
2018-Jun-23 09:57N 37°55' W 008°52'0 0.0
2018-Jun-23 09:30N 37°55' W 008°52'0 0.0
2018-Jun-23 09:00N 37°55' W 008°52'0 0.0
2018-Jun-23 08:30N 37°55' W 008°52'0 0.0
2018-Jun-23 08:00N 37°55' W 008°52'0 0.1
2018-Jun-23 07:30N 37°55' W 008°52'2 4.1
2018-Jun-23 07:00N 37°57' W 008°53'1 2.9
2018-Jun-23 06:30N 37°55' W 008°53'5 9.9
2018-Jun-23 06:01N 37°58' W 008°59'612.6
2018-Jun-23 05:31N 38°01' W 009°06'713.0
2018-Jun-23 05:01N 38°04' W 009°13'713.0
2018-Jun-23 04:31N 38°08' W 009°20'713.1
2018-Jun-23 04:01N 38°11' W 009°26'612.9
2018-Jun-23 03:31N 38°15' W 009°33'612.7
2018-Jun-23 03:01N 38°19' W 009°40'612.8
2018-Jun-23 02:30N 38°22' W 009°47'612.5
2018-Jun-23 02:00N 38°26' W 009°53'713.1
2018-Jun-23 01:30N 38°30' W 010°00'612.9
2018-Jun-23 01:01N 38°33' W 010°07'612.0
2018-Jun-23 00:30N 38°38' W 010°11'612.9
2018-Jun-23 00:00N 38°45' W 010°12'1412.7
2018-Jun-22 22:53N 38°59' W 010°12'  
2018-Jun-20 12:29N 49°49' W 003°19'611.2
2018-Jun-20 11:57N 49°52' W 003°11'511.2
2018-Jun-20 11:30N 49°54' W 003°05'611.4
2018-Jun-20 11:00N 49°57' W 002°57'611.5
2018-Jun-20 10:28N 49°59' W 002°48'612.1
2018-Jun-20 09:59N 50°01' W 002°39'2713.6
2018-Jun-20 08:01N 50°08' W 001°59'014.8
2018-Jun-20 08:00N 50°08' W 001°59'5214.7
2018-Jun-20 04:28N 50°22' W 000°41'1312.4
2018-Jun-20 03:24N 50°26' W 000°21'2511.1
2018-Jun-20 01:09N 50°32' E 000°17'210.7
2018-Jun-20 01:00N 50°33' E 000°20'511.0
2018-Jun-20 00:30N 50°34' E 000°28'611.5
2018-Jun-20 00:00N 50°37' E 000°36'612.3
2018-Jun-19 23:30N 50°40' E 000°44'713.1
2018-Jun-19 23:00N 50°45' E 000°52'713.8
2018-Jun-19 22:30N 50°49' E 000°60'713.9
2018-Jun-19 21:59N 50°54' E 001°09'713.6
2018-Jun-19 21:30N 50°58' E 001°17'713.2
2018-Jun-19 21:00N 51°02' E 001°25'612.5
2018-Jun-19 20:30N 51°06' E 001°32'611.7
2018-Jun-19 20:00N 51°10' E 001°40'611.4
2018-Jun-19 19:30N 51°14' E 001°46'510.9
2018-Jun-19 19:00N 51°18' E 001°51'510.7
2018-Jun-19 18:30N 51°23' E 001°56'5 9.3
2018-Jun-19 18:00N 51°25' E 002°03'612.0
2018-Jun-19 17:30N 51°23' E 002°11'510.8
2018-Jun-19 17:00N 51°21' E 002°20'611.1
2018-Jun-19 16:29N 51°23' E 002°29'510.6
2018-Jun-19 15:59N 51°23' E 002°37'511.4
2018-Jun-19 15:30N 51°22' E 002°46'612.2
2018-Jun-19 15:00N 51°23' E 002°55'612.6
2018-Jun-19 14:30N 51°24' E 003°05'612.5
2018-Jun-19 14:00N 51°25' E 003°15'612.3
2018-Jun-19 13:30N 51°25' E 003°25'612.3
2018-Jun-19 13:00N 51°26' E 003°35'5 9.9
2018-Jun-19 12:30N 51°28' E 003°42'0 0.1
2018-Jun-19 10:57N 51°28' E 003°42'0 0.0
2018-Jun-19 05:48N 51°28' E 003°42'0 0.0
2018-Jun-19 00:15N 51°28' E 003°42'0 0.0
2018-Jun-18 23:51N 51°28' E 003°42'0 0.1
2018-Jun-18 23:30N 51°28' E 003°42'1 1.0
2018-Jun-18 23:00N 51°28' E 003°41'5 9.5
2018-Jun-18 22:30N 51°23' E 003°43'3 4.3
2018-Jun-18 21:51N 51°21' E 003°46'0 0.0
2018-Jun-18 21:27N 51°21' E 003°46'0 0.0
2018-Jun-18 20:45N 51°21' E 003°46'0 0.0
2018-Jun-18 19:57N 51°21' E 003°46'0 0.0
2018-Jun-18 19:27N 51°21' E 003°46'0 0.0
2018-Jun-18 18:51N 51°21' E 003°46'0 0.0
2018-Jun-18 18:27N 51°21' E 003°46'0 0.0
2018-Jun-18 18:00N 51°21' E 003°46'0 0.0
2018-Jun-18 17:21N 51°21' E 003°46'0 0.0
2018-Jun-18 16:45N 51°21' E 003°46'0 0.0
2018-Jun-18 16:21N 51°21' E 003°46'0 0.0
2018-Jun-18 15:39N 51°21' E 003°46'0 0.0
2018-Jun-18 15:12N 51°21' E 003°46'0 0.0
2018-Jun-18 15:00N 51°21' E 003°46'0 0.0
2018-Jun-18 14:21N 51°21' E 003°46'0 0.0
2018-Jun-18 13:54N 51°21' E 003°46'0 0.0
2018-Jun-18 13:12N 51°21' E 003°46'0 0.0
2018-Jun-18 12:54N 51°21' E 003°46'0 0.0
2018-Jun-18 12:21N 51°21' E 003°46'0 0.0
2018-Jun-18 11:45N 51°21' E 003°46'0 0.0
2018-Jun-18 11:18N 51°21' E 003°46'0 0.0
2018-Jun-18 10:54N 51°21' E 003°46'0 0.0
2018-Jun-18 09:12N 51°21' E 003°46'0 0.0
2018-Jun-18 08:57N 51°21' E 003°46'0 0.0
2018-Jun-18 08:27N 51°21' E 003°46'0 0.0
2018-Jun-18 08:00N 51°21' E 003°46'0 0.0
2018-Jun-18 07:30N 51°21' E 003°46'0 0.0
2018-Jun-18 07:00N 51°21' E 003°46'0 0.0
2018-Jun-18 06:18N 51°21' E 003°46'0 0.0
2018-Jun-18 05:57N 51°21' E 003°46'0 0.0
2018-Jun-18 05:30N 51°21' E 003°46'0 0.0
2018-Jun-18 04:57N 51°21' E 003°46'0 0.0
2018-Jun-18 04:30N 51°21' E 003°46'0 0.0
2018-Jun-18 04:00N 51°21' E 003°46'0 0.0
2018-Jun-18 03:30N 51°21' E 003°46'0 0.0
2018-Jun-18 02:57N 51°21' E 003°46'0 0.0
2018-Jun-18 02:27N 51°21' E 003°46'0 0.0
2018-Jun-18 01:57N 51°21' E 003°46'0 0.0
2018-Jun-18 01:30N 51°21' E 003°46'0 0.0
2018-Jun-18 00:57N 51°21' E 003°46'0 0.0
2018-Jun-18 00:30N 51°21' E 003°46'0 0.0
2018-Jun-17 23:57N 51°21' E 003°46'0 0.0
2018-Jun-17 23:27N 51°21' E 003°46'0 0.0
2018-Jun-17 23:00N 51°21' E 003°46'0 0.0
2018-Jun-17 22:30N 51°21' E 003°46'0 0.0
2018-Jun-17 21:57N 51°21' E 003°46'0 0.0
2018-Jun-17 21:27N 51°21' E 003°46'0 0.0
2018-Jun-17 20:57N 51°21' E 003°46'0 0.0
2018-Jun-17 20:30N 51°21' E 003°46'0 0.0
2018-Jun-17 20:00N 51°21' E 003°46'0 0.0
2018-Jun-17 19:30N 51°21' E 003°46'0 0.0
2018-Jun-17 18:57N 51°21' E 003°46'0 0.0
2018-Jun-17 18:27N 51°21' E 003°46'0 0.0
2018-Jun-17 18:00N 51°21' E 003°46'0 0.0
2018-Jun-17 17:27N 51°21' E 003°46'0 0.0
2018-Jun-17 16:54N 51°21' E 003°46'0 0.0
2018-Jun-17 16:27N 51°21' E 003°46'0 0.0
2018-Jun-17 16:00N 51°21' E 003°46'0 0.0
2018-Jun-17 15:27N 51°21' E 003°46'0 0.0
2018-Jun-17 14:57N 51°21' E 003°46'0 0.8
2018-Jun-17 14:30N 51°21' E 003°46'4 8.5
2018-Jun-17 14:00N 51°25' E 003°42'713.3
2018-Jun-17 13:30N 51°25' E 003°32'714.8
2018-Jun-17 13:00N 51°24' E 003°20'713.8
2018-Jun-17 12:30N 51°24' E 003°09'612.1
2018-Jun-17 12:01N 51°23' E 002°59'611.7
2018-Jun-17 11:30N 51°21' E 002°50'5 8.5
2018-Jun-17 10:57N 51°22' E 002°43'4 8.6
2018-Jun-17 10:30N 51°22' E 002°37'3 6.1
2018-Jun-17 09:58N 51°20' E 002°33'0 0.1
2018-Jun-17 09:28N 51°20' E 002°33'0 0.0
2018-Jun-17 08:52N 51°20' E 002°33'0 0.3
2018-Jun-17 08:22N 51°20' E 002°33'0 0.2
2018-Jun-17 07:58N 51°20' E 002°33'0 0.0
2018-Jun-17 07:25N 51°20' E 002°33'0 0.0
2018-Jun-17 06:58N 51°20' E 002°33'0 0.0
2018-Jun-17 06:28N 51°20' E 002°33'0 0.0
2018-Jun-17 05:58N 51°20' E 002°33'0 0.0
2018-Jun-17 05:28N 51°20' E 002°33'0 0.0
2018-Jun-17 04:52N 51°20' E 002°33'0 0.0
2018-Jun-17 04:28N 51°20' E 002°33'0 0.0
2018-Jun-17 03:58N 51°20' E 002°33'1 1.2
2018-Jun-17 03:30N 51°20' E 002°33'510.3
2018-Jun-17 03:01N 51°21' E 002°25'714.9
2018-Jun-17 02:30N 51°17' E 002°15'815.1
2018-Jun-17 02:00N 51°13' E 002°05'815.6
2018-Jun-17 01:30N 51°09' E 001°54'815.8
2018-Jun-17 01:00N 51°04' E 001°44'916.2
2018-Jun-17 00:28N 50°58' E 001°34'715.2
2018-Jun-16 23:59N 50°52' E 001°27'6413.0
2018-Jun-16 19:03N 50°19' E 000°01'112.3
2018-Jun-16 19:00N 50°19' W 000°00'612.1
2018-Jun-16 18:30N 50°17' W 000°09'811.7
2018-Jun-16 17:48N 50°15' W 000°22'611.1
2018-Jun-16 17:18N 50°14' W 000°30'310.9
2018-Jun-16 17:00N 50°13' W 000°35'  
Track history (hours):
 
Tides and Currents Weather Stations Pressure Air Temp Water Temp Dewpoint Dewpoint Depression Visibility Wind Speed Wind Dir Waves Ship Positions

Scali Sanlorenzo

Last reported at 2018-Jun-24 18:23 UTC. Time now 2018-Jun-25 06:07 UTC.
Position N 37°28' W 009°12'.

Length 89 m; draft 5.8 m.

Type: Tanker. MMSI: 248532000.

Date/timePositionNaut miles runAvg speedWind from/ knotsBaromVisibWave heightAir tempDewpointWater temp
2018-Jun-24 18:23N 37°28' W 009°12'512.9
2018-Jun-24 18:00N 37°32' W 009°09'713.2
2018-Jun-24 17:30N 37°38' W 009°04'713.4
2018-Jun-24 17:00N 37°43' W 008°59'713.2
2018-Jun-24 16:30N 37°49' W 008°55'713.4
2018-Jun-24 16:00N 37°56' W 008°53'2 2.9
2018-Jun-24 15:28N 37°57' W 008°53'0 0.0
2018-Jun-24 14:58N 37°57' W 008°53'0 0.0
2018-Jun-24 14:28N 37°57' W 008°53'0 0.0
2018-Jun-24 13:58N 37°57' W 008°53'0 0.0
2018-Jun-24 13:28N 37°57' W 008°53'0 0.0
2018-Jun-24 12:58N 37°57' W 008°53'0 0.0
2018-Jun-24 12:28N 37°57' W 008°53'0 0.0
2018-Jun-24 11:58N 37°57' W 008°53'0 0.0
2018-Jun-24 11:28N 37°57' W 008°53'0 0.0
2018-Jun-24 10:58N 37°57' W 008°53'0 0.0
2018-Jun-24 10:28N 37°57' W 008°53'0 0.0
2018-Jun-24 09:58N 37°57' W 008°53'0 0.0
2018-Jun-24 09:28N 37°57' W 008°53'0 0.0
2018-Jun-24 08:58N 37°57' W 008°53'0 0.0
2018-Jun-24 08:28N 37°57' W 008°53'0 0.0
2018-Jun-24 07:58N 37°57' W 008°53'0 0.0
2018-Jun-24 07:28N 37°57' W 008°53'0 0.0
2018-Jun-24 06:58N 37°57' W 008°53'0 0.0
2018-Jun-24 06:28N 37°57' W 008°53'0 0.0
2018-Jun-24 05:58N 37°57' W 008°53'0 0.0
2018-Jun-24 05:28N 37°57' W 008°53'0 0.0
2018-Jun-24 04:58N 37°57' W 008°53'0 0.0
2018-Jun-24 04:28N 37°57' W 008°53'0 0.0
2018-Jun-24 03:58N 37°57' W 008°53'0 0.0
2018-Jun-24 03:28N 37°57' W 008°53'0 0.0
2018-Jun-24 02:58N 37°57' W 008°53'0 0.0
2018-Jun-24 02:28N 37°57' W 008°53'0 0.0
2018-Jun-24 01:58N 37°57' W 008°53'0 0.0
2018-Jun-24 01:28N 37°57' W 008°53'0 0.0
2018-Jun-24 00:58N 37°57' W 008°53'0 0.0
2018-Jun-24 00:28N 37°57' W 008°53'0 0.0
2018-Jun-23 23:58N 37°57' W 008°53'0 0.0
2018-Jun-23 23:28N 37°57' W 008°53'0 0.0
2018-Jun-23 22:58N 37°57' W 008°53'0 0.0
2018-Jun-23 22:28N 37°57' W 008°53'0 0.0
2018-Jun-23 21:58N 37°57' W 008°53'0 0.0
2018-Jun-23 21:25N 37°57' W 008°53'0 0.0
2018-Jun-23 20:58N 37°57' W 008°53'0 0.0
2018-Jun-23 20:28N 37°57' W 008°53'0 0.0
2018-Jun-23 19:58N 37°57' W 008°53'0 0.0
2018-Jun-23 19:25N 37°57' W 008°53'0 0.0
2018-Jun-23 18:58N 37°57' W 008°53'0 0.0
2018-Jun-23 18:28N 37°57' W 008°53'0 0.0
2018-Jun-23 17:58N 37°57' W 008°53'0 0.0
2018-Jun-23 17:22N 37°57' W 008°53'0 0.0
2018-Jun-23 16:58N 37°57' W 008°53'1 1.2
2018-Jun-23 16:30N 37°57' W 008°53'2 3.5
2018-Jun-23 16:00N 37°55' W 008°52'0 0.0
2018-Jun-23 15:30N 37°55' W 008°52'0 0.0
2018-Jun-23 15:00N 37°55' W 008°52'0 0.0
2018-Jun-23 14:30N 37°55' W 008°52'0 0.0
2018-Jun-23 14:00N 37°55' W 008°52'0 0.0
2018-Jun-23 13:30N 37°55' W 008°52'0 0.0
2018-Jun-23 13:00N 37°55' W 008°52'0 0.0
2018-Jun-23 12:30N 37°55' W 008°52'0 0.1
2018-Jun-23 12:00N 37°55' W 008°52'0 0.0
2018-Jun-23 11:30N 37°55' W 008°52'0 0.0
2018-Jun-23 11:00N 37°55' W 008°52'0 0.0
2018-Jun-23 10:30N 37°55' W 008°52'0 0.1
2018-Jun-23 09:57N 37°55' W 008°52'0 0.0
2018-Jun-23 09:30N 37°55' W 008°52'0 0.0
2018-Jun-23 09:00N 37°55' W 008°52'0 0.0
2018-Jun-23 08:30N 37°55' W 008°52'0 0.0
2018-Jun-23 08:00N 37°55' W 008°52'0 0.1
2018-Jun-23 07:30N 37°55' W 008°52'2 4.1
2018-Jun-23 07:00N 37°57' W 008°53'1 2.9
2018-Jun-23 06:30N 37°55' W 008°53'5 9.9
2018-Jun-23 06:01N 37°58' W 008°59'612.6
2018-Jun-23 05:31N 38°01' W 009°06'713.0
2018-Jun-23 05:01N 38°04' W 009°13'713.0
2018-Jun-23 04:31N 38°08' W 009°20'713.1
2018-Jun-23 04:01N 38°11' W 009°26'612.9
2018-Jun-23 03:31N 38°15' W 009°33'612.7
2018-Jun-23 03:01N 38°19' W 009°40'612.8
2018-Jun-23 02:30N 38°22' W 009°47'612.5
2018-Jun-23 02:00N 38°26' W 009°53'713.1
2018-Jun-23 01:30N 38°30' W 010°00'612.9
2018-Jun-23 01:01N 38°33' W 010°07'612.0
2018-Jun-23 00:30N 38°38' W 010°11'612.9
2018-Jun-23 00:00N 38°45' W 010°12'1412.7
2018-Jun-22 22:53N 38°59' W 010°12'  
2018-Jun-20 12:29N 49°49' W 003°19'611.2
2018-Jun-20 11:57N 49°52' W 003°11'511.2
2018-Jun-20 11:30N 49°54' W 003°05'611.4
2018-Jun-20 11:00N 49°57' W 002°57'611.5
2018-Jun-20 10:28N 49°59' W 002°48'612.1
2018-Jun-20 09:59N 50°01' W 002°39'2713.6
2018-Jun-20 08:01N 50°08' W 001°59'014.8
2018-Jun-20 08:00N 50°08' W 001°59'5214.7
2018-Jun-20 04:28N 50°22' W 000°41'1312.4
2018-Jun-20 03:24N 50°26' W 000°21'2511.1
2018-Jun-20 01:09N 50°32' E 000°17'210.7
2018-Jun-20 01:00N 50°33' E 000°20'511.0
2018-Jun-20 00:30N 50°34' E 000°28'611.5
2018-Jun-20 00:00N 50°37' E 000°36'612.3
2018-Jun-19 23:30N 50°40' E 000°44'713.1
2018-Jun-19 23:00N 50°45' E 000°52'713.8
2018-Jun-19 22:30N 50°49' E 000°60'713.9
2018-Jun-19 21:59N 50°54' E 001°09'713.6
2018-Jun-19 21:30N 50°58' E 001°17'713.2
2018-Jun-19 21:00N 51°02' E 001°25'612.5
2018-Jun-19 20:30N 51°06' E 001°32'611.7
2018-Jun-19 20:00N 51°10' E 001°40'611.4
2018-Jun-19 19:30N 51°14' E 001°46'510.9
2018-Jun-19 19:00N 51°18' E 001°51'510.7
2018-Jun-19 18:30N 51°23' E 001°56'5 9.3
2018-Jun-19 18:00N 51°25' E 002°03'612.0
2018-Jun-19 17:30N 51°23' E 002°11'510.8
2018-Jun-19 17:00N 51°21' E 002°20'611.1
2018-Jun-19 16:29N 51°23' E 002°29'510.6
2018-Jun-19 15:59N 51°23' E 002°37'511.4
2018-Jun-19 15:30N 51°22' E 002°46'612.2
2018-Jun-19 15:00N 51°23' E 002°55'612.6
2018-Jun-19 14:30N 51°24' E 003°05'612.5
2018-Jun-19 14:00N 51°25' E 003°15'612.3
2018-Jun-19 13:30N 51°25' E 003°25'612.3
2018-Jun-19 13:00N 51°26' E 003°35'5 9.9
2018-Jun-19 12:30N 51°28' E 003°42'0 0.1
2018-Jun-19 10:57N 51°28' E 003°42'0 0.0
2018-Jun-19 05:48N 51°28' E 003°42'0 0.0
2018-Jun-19 00:15N 51°28' E 003°42'0 0.0
2018-Jun-18 23:51N 51°28' E 003°42'0 0.1
2018-Jun-18 23:30N 51°28' E 003°42'1 1.0
2018-Jun-18 23:00N 51°28' E 003°41'5 9.5
2018-Jun-18 22:30N 51°23' E 003°43'3 4.3
2018-Jun-18 21:51N 51°21' E 003°46'0 0.0
2018-Jun-18 21:27N 51°21' E 003°46'0 0.0
2018-Jun-18 20:45N 51°21' E 003°46'0 0.0
2018-Jun-18 19:57N 51°21' E 003°46'0 0.0
2018-Jun-18 19:27N 51°21' E 003°46'0 0.0
2018-Jun-18 18:51N 51°21' E 003°46'0 0.0
2018-Jun-18 18:27N 51°21' E 003°46'0 0.0
2018-Jun-18 18:00N 51°21' E 003°46'0 0.0
2018-Jun-18 17:21N 51°21' E 003°46'0 0.0
2018-Jun-18 16:45N 51°21' E 003°46'0 0.0
2018-Jun-18 16:21N 51°21' E 003°46'0 0.0
2018-Jun-18 15:39N 51°21' E 003°46'0 0.0
2018-Jun-18 15:12N 51°21' E 003°46'0 0.0
2018-Jun-18 15:00N 51°21' E 003°46'0 0.0
2018-Jun-18 14:21N 51°21' E 003°46'0 0.0
2018-Jun-18 13:54N 51°21' E 003°46'0 0.0
2018-Jun-18 13:12N 51°21' E 003°46'0 0.0
2018-Jun-18 12:54N 51°21' E 003°46'0 0.0
2018-Jun-18 12:21N 51°21' E 003°46'0 0.0
2018-Jun-18 11:45N 51°21' E 003°46'0 0.0
2018-Jun-18 11:18N 51°21' E 003°46'0 0.0
2018-Jun-18 10:54N 51°21' E 003°46'0 0.0
2018-Jun-18 09:12N 51°21' E 003°46'0 0.0
2018-Jun-18 08:57N 51°21' E 003°46'0 0.0
2018-Jun-18 08:27N 51°21' E 003°46'0 0.0
2018-Jun-18 08:00N 51°21' E 003°46'0 0.0
2018-Jun-18 07:30N 51°21' E 003°46'0 0.0
2018-Jun-18 07:00N 51°21' E 003°46'0 0.0
2018-Jun-18 06:18N 51°21' E 003°46'0 0.0
2018-Jun-18 05:57N 51°21' E 003°46'0 0.0
2018-Jun-18 05:30N 51°21' E 003°46'0 0.0
2018-Jun-18 04:57N 51°21' E 003°46'0 0.0
2018-Jun-18 04:30N 51°21' E 003°46'0 0.0
2018-Jun-18 04:00N 51°21' E 003°46'0 0.0
2018-Jun-18 03:30N 51°21' E 003°46'0 0.0
2018-Jun-18 02:57N 51°21' E 003°46'0 0.0
2018-Jun-18 02:27N 51°21' E 003°46'0 0.0
2018-Jun-18 01:57N 51°21' E 003°46'0 0.0
2018-Jun-18 01:30N 51°21' E 003°46'0 0.0
2018-Jun-18 00:57N 51°21' E 003°46'0 0.0
2018-Jun-18 00:30N 51°21' E 003°46'0 0.0
2018-Jun-17 23:57N 51°21' E 003°46'0 0.0
2018-Jun-17 23:27N 51°21' E 003°46'0 0.0
2018-Jun-17 23:00N 51°21' E 003°46'0 0.0
2018-Jun-17 22:30N 51°21' E 003°46'0 0.0
2018-Jun-17 21:57N 51°21' E 003°46'0 0.0
2018-Jun-17 21:27N 51°21' E 003°46'0 0.0
2018-Jun-17 20:57N 51°21' E 003°46'0 0.0
2018-Jun-17 20:30N 51°21' E 003°46'0 0.0
2018-Jun-17 20:00N 51°21' E 003°46'0 0.0
2018-Jun-17 19:30N 51°21' E 003°46'0 0.0
2018-Jun-17 18:57N 51°21' E 003°46'0 0.0
2018-Jun-17 18:27N 51°21' E 003°46'0 0.0
2018-Jun-17 18:00N 51°21' E 003°46'0 0.0
2018-Jun-17 17:27N 51°21' E 003°46'0 0.0
2018-Jun-17 16:54N 51°21' E 003°46'0 0.0
2018-Jun-17 16:27N 51°21' E 003°46'0 0.0
2018-Jun-17 16:00N 51°21' E 003°46'0 0.0
2018-Jun-17 15:27N 51°21' E 003°46'0 0.0
2018-Jun-17 14:57N 51°21' E 003°46'0 0.8
2018-Jun-17 14:30N 51°21' E 003°46'4 8.5
2018-Jun-17 14:00N 51°25' E 003°42'713.3
2018-Jun-17 13:30N 51°25' E 003°32'714.8
2018-Jun-17 13:00N 51°24' E 003°20'713.8
2018-Jun-17 12:30N 51°24' E 003°09'612.1
2018-Jun-17 12:01N 51°23' E 002°59'611.7
2018-Jun-17 11:30N 51°21' E 002°50'5 8.5
2018-Jun-17 10:57N 51°22' E 002°43'4 8.6
2018-Jun-17 10:30N 51°22' E 002°37'3 6.1
2018-Jun-17 09:58N 51°20' E 002°33'0 0.1
2018-Jun-17 09:28N 51°20' E 002°33'0 0.0
2018-Jun-17 08:52N 51°20' E 002°33'0 0.3
2018-Jun-17 08:22N 51°20' E 002°33'0 0.2
2018-Jun-17 07:58N 51°20' E 002°33'0 0.0
2018-Jun-17 07:25N 51°20' E 002°33'0 0.0
2018-Jun-17 06:58N 51°20' E 002°33'0 0.0
2018-Jun-17 06:28N 51°20' E 002°33'0 0.0
2018-Jun-17 05:58N 51°20' E 002°33'0 0.0
2018-Jun-17 05:28N 51°20' E 002°33'0 0.0
2018-Jun-17 04:52N 51°20' E 002°33'0 0.0
2018-Jun-17 04:28N 51°20' E 002°33'0 0.0
2018-Jun-17 03:58N 51°20' E 002°33'1 1.2
2018-Jun-17 03:30N 51°20' E 002°33'510.3
2018-Jun-17 03:01N 51°21' E 002°25'714.9
2018-Jun-17 02:30N 51°17' E 002°15'815.1
2018-Jun-17 02:00N 51°13' E 002°05'815.6
2018-Jun-17 01:30N 51°09' E 001°54'815.8
2018-Jun-17 01:00N 51°04' E 001°44'916.2
2018-Jun-17 00:28N 50°58' E 001°34'715.2
2018-Jun-16 23:59N 50°52' E 001°27'6413.0
2018-Jun-16 19:03N 50°19' E 000°01'112.3
2018-Jun-16 19:00N 50°19' W 000°00'612.1
2018-Jun-16 18:30N 50°17' W 000°09'811.7
2018-Jun-16 17:48N 50°15' W 000°22'611.1
2018-Jun-16 17:18N 50°14' W 000°30'310.9
2018-Jun-16 17:00N 50°13' W 000°35'  

Dump ship's entire track history